createdAt,value
2019-06-10T00:02:05.863Z,20.00
2019-06-10T00:07:11.825Z,19.89
2019-06-10T00:12:15.864Z,19.73
2019-06-10T00:17:21.408Z,19.73
2019-06-10T00:22:25.453Z,19.47
2019-06-10T00:27:31.172Z,19.23
2019-06-10T00:32:35.246Z,19.25
2019-06-10T00:37:39.023Z,19.25
2019-06-10T00:42:42.943Z,19.33
2019-06-10T00:47:46.712Z,19.35
2019-06-10T00:52:51.644Z,19.17
2019-06-10T00:57:55.506Z,19.13
2019-06-10T01:03:01.096Z,19.22
2019-06-10T01:08:06.589Z,19.22
2019-06-10T01:13:12.250Z,18.96
2019-06-10T01:18:34.134Z,18.96
2019-06-10T01:23:21.983Z,18.83
2019-06-10T01:28:25.712Z,18.65
2019-06-10T01:33:31.703Z,18.61
2019-06-10T01:38:35.263Z,18.61
2019-06-10T01:43:40.784Z,18.62
2019-06-10T01:48:48.131Z,18.58
2019-06-10T01:53:51.266Z,18.60
2019-06-10T01:58:55.448Z,18.52
2019-06-10T02:04:00.867Z,18.37
2019-06-10T02:09:06.550Z,18.31
2019-06-10T02:14:14.401Z,18.37
2019-06-10T02:19:17.465Z,18.38
2019-06-10T02:24:23.354Z,18.44
2019-06-10T02:29:27.360Z,18.32
2019-06-10T02:34:34.067Z,18.18
2019-06-10T02:39:38.962Z,18.21
2019-06-10T02:44:44.485Z,18.20
2019-06-10T02:49:59.023Z,18.01
2019-06-10T02:54:53.858Z,18.16
2019-06-10T02:59:57.660Z,18.22
2019-06-10T03:05:04.632Z,18.07
2019-06-10T03:10:07.255Z,18.02
2019-06-10T03:15:12.584Z,17.94
2019-06-10T03:20:17.832Z,18.02
2019-06-10T03:25:23.326Z,18.11
2019-06-10T03:30:41.201Z,18.09
2019-06-10T03:35:33.116Z,18.20
2019-06-10T03:40:36.881Z,18.37
2019-06-10T03:45:42.591Z,18.46
2019-06-10T03:50:46.637Z,18.48
2019-06-10T03:55:52.524Z,18.52
2019-06-10T04:00:55.964Z,18.58
2019-06-10T04:06:02.134Z,18.68
2019-06-10T04:11:05.423Z,18.70
2019-06-10T04:16:09.301Z,18.75
2019-06-10T04:21:13.152Z,18.84
2019-06-10T04:26:17.806Z,18.88
2019-06-10T04:31:23.742Z,18.91
2019-06-10T04:36:28.151Z,18.91
2019-06-10T04:41:32.760Z,18.37
2019-06-10T04:46:36.669Z,18.32
2019-06-10T04:51:40.589Z,18.15
2019-06-10T04:56:44.516Z,18.19
2019-06-10T05:01:48.288Z,18.19
2019-06-10T05:06:52.667Z,18.50
2019-06-10T05:11:56.574Z,18.70
2019-06-10T05:17:02.180Z,18.95
2019-06-10T05:22:06.112Z,19.53
2019-06-10T05:27:09.882Z,19.80
2019-06-10T05:32:13.676Z,19.80
2019-06-10T05:37:17.444Z,20.24
2019-06-10T05:42:24.596Z,20.49
2019-06-10T05:47:29.205Z,20.76
2019-06-10T05:52:33.822Z,21.08
2019-06-10T05:57:38.268Z,21.49
2019-06-10T06:02:43.266Z,21.68
2019-06-10T06:08:01.336Z,21.70
2019-06-10T06:12:52.966Z,21.74
2019-06-10T06:18:07.225Z,21.64
2019-06-10T06:23:02.772Z,21.55
2019-06-10T06:28:06.925Z,21.56
2019-06-10T06:33:13.345Z,21.68
2019-06-10T06:38:16.316Z,21.59
2019-06-10T06:43:22.092Z,21.78
2019-06-10T06:48:25.671Z,22.17
2019-06-10T06:53:35.285Z,22.36
2019-06-10T06:58:36.901Z,22.47
2019-06-10T07:03:44.646Z,22.73
2019-06-10T07:09:00.348Z,22.94
2019-06-10T07:13:54.909Z,22.91
2019-06-10T07:18:58.665Z,22.70
2019-06-10T07:24:03.217Z,22.23
2019-06-10T07:29:09.333Z,22.10
2019-06-10T07:34:13.249Z,21.68
2019-06-10T07:39:17.088Z,21.45
2019-06-10T07:44:22.627Z,21.61
2019-06-10T07:49:26.364Z,21.84
2019-06-10T07:54:30.206Z,21.94
2019-06-10T07:59:35.344Z,21.80
2019-06-10T08:04:39.988Z,21.56
2019-06-10T08:09:45.756Z,21.15
2019-06-10T08:14:49.767Z,20.88
2019-06-10T08:19:54.439Z,21.03
2019-06-10T08:24:58.257Z,21.33
2019-06-10T08:30:15.607Z,21.52
2019-06-10T08:35:08.498Z,21.80
2019-06-10T08:40:12.517Z,22.01
2019-06-10T08:45:16.576Z,22.21
2019-06-10T08:50:22.338Z,22.57
2019-06-10T08:55:26.510Z,22.95
2019-06-10T09:00:33.227Z,23.85
2019-06-10T09:05:38.762Z,24.48
2019-06-10T09:10:45.709Z,24.78
2019-06-10T09:16:06.000Z,24.57
2019-06-10T09:20:58.265Z,25.14
2019-06-10T09:26:03.586Z,25.43
2019-06-10T09:31:07.696Z,26.08
2019-06-10T09:36:12.527Z,25.92
2019-06-10T09:41:16.521Z,25.84
2019-06-10T09:46:23.278Z,26.20
2019-06-10T09:51:27.206Z,26.55
2019-06-10T09:56:33.119Z,26.04
2019-06-10T10:01:36.988Z,25.90
2019-06-10T10:06:44.811Z,26.27
2019-06-10T10:11:48.969Z,27.57
2019-06-10T10:16:59.825Z,28.66
2019-06-10T10:21:59.215Z,28.51
2019-06-10T10:27:08.369Z,28.82
2019-06-10T10:32:08.573Z,28.86
2019-06-10T10:37:12.614Z,28.91
2019-06-10T10:42:16.452Z,29.11
2019-06-10T10:47:20.236Z,29.35
2019-06-10T10:52:24.085Z,29.75
2019-06-10T10:57:28.281Z,28.97
2019-06-10T11:02:32.338Z,29.02
2019-06-10T11:07:38.681Z,28.34
2019-06-10T11:12:46.920Z,28.96
2019-06-10T11:17:54.911Z,29.07
2019-06-10T11:22:57.994Z,29.14
2019-06-10T11:28:04.019Z,28.86
2019-06-10T11:33:08.148Z,29.21
2019-06-10T11:38:12.836Z,29.53
2019-06-10T11:43:16.748Z,28.98
2019-06-10T11:48:20.676Z,29.24
2019-06-10T11:53:24.588Z,29.53
2019-06-10T11:58:28.563Z,29.52
2019-06-10T12:03:32.793Z,29.88
2019-06-10T12:08:36.995Z,29.69
2019-06-10T12:13:42.817Z,29.91
2019-06-10T12:18:46.735Z,30.05
2019-06-10T12:23:56.761Z,29.77
2019-06-10T12:28:59.336Z,29.05
2019-06-10T12:34:03.289Z,28.85
2019-06-10T12:39:10.911Z,28.75
2019-06-10T12:44:14.798Z,28.69
2019-06-10T12:49:18.808Z,28.56
2019-06-10T12:54:22.744Z,28.60
2019-06-10T12:59:27.127Z,28.61
2019-06-10T13:04:31.384Z,28.43
2019-06-10T13:09:43.311Z,28.49
2019-06-10T13:14:46.628Z,28.78
2019-06-10T13:19:50.483Z,28.96
2019-06-10T13:24:54.265Z,29.03
2019-06-10T13:29:58.327Z,29.27
2019-06-10T13:35:03.638Z,29.34
2019-06-10T13:40:12.334Z,29.40
2019-06-10T13:45:14.828Z,29.10
2019-06-10T13:50:22.149Z,29.43
2019-06-10T13:55:26.012Z,29.56
2019-06-10T14:00:40.825Z,29.83
2019-06-10T14:05:36.674Z,29.93
2019-06-10T14:10:42.895Z,30.08
2019-06-10T14:15:46.079Z,30.43
2019-06-10T14:20:52.826Z,30.53
2019-06-10T14:25:56.050Z,30.76
2019-06-10T14:31:02.677Z,30.60
2019-06-10T14:36:06.941Z,30.60
2019-06-10T14:41:12.203Z,30.66
2019-06-10T14:46:17.682Z,30.58
2019-06-10T14:51:22.949Z,30.56
2019-06-10T14:56:26.943Z,30.79
2019-06-10T15:01:32.200Z,30.83
2019-06-10T15:06:36.269Z,30.88
2019-06-10T15:11:42.650Z,30.51
2019-06-10T15:16:45.869Z,30.54
2019-06-10T15:21:49.647Z,30.82
2019-06-10T15:27:08.710Z,30.72
2019-06-10T15:32:10.509Z,30.59
2019-06-10T15:37:04.893Z,30.43
2019-06-10T15:42:09.468Z,30.19
2019-06-10T15:47:17.047Z,29.83
2019-06-10T15:52:20.657Z,29.62
2019-06-10T15:57:38.649Z,29.48
2019-06-10T16:02:30.385Z,29.38
2019-06-10T16:07:35.899Z,29.18
2019-06-10T16:12:39.997Z,28.96
2019-06-10T16:17:44.227Z,28.81
2019-06-10T16:22:48.440Z,28.43
2019-06-10T16:27:54.414Z,28.09
2019-06-10T16:32:57.755Z,27.88
2019-06-10T16:38:02.903Z,27.71
2019-06-10T16:43:06.744Z,27.51
2019-06-10T16:48:12.987Z,27.29
2019-06-10T16:53:45.269Z,27.09
2019-06-10T16:58:49.351Z,26.69
2019-06-10T17:03:53.181Z,26.28
2019-06-10T17:08:56.968Z,25.86
2019-06-10T17:14:03.107Z,25.62
2019-06-10T17:19:07.104Z,25.36
2019-06-10T17:24:12.789Z,25.04
2019-06-10T17:29:16.569Z,24.84
2019-06-10T17:34:22.977Z,24.88
2019-06-10T17:39:27.035Z,24.82
2019-06-10T17:44:32.492Z,24.74
2019-06-10T17:49:36.513Z,24.70
2019-06-10T17:54:40.406Z,24.73
2019-06-10T17:59:44.778Z,24.52
2019-06-10T18:04:48.562Z,24.42
2019-06-10T18:09:53.021Z,24.14
2019-06-10T18:14:57.090Z,23.53
2019-06-10T18:20:02.833Z,23.14
2019-06-10T18:25:08.304Z,22.96
2019-06-10T18:30:14.441Z,22.71
2019-06-10T18:35:19.480Z,22.94
2019-06-10T18:40:24.100Z,23.09
2019-06-10T18:45:29.718Z,23.10
2019-06-10T18:50:36.179Z,23.14
2019-06-10T18:55:40.755Z,23.01
2019-06-10T19:00:59.615Z,22.65
2019-06-10T19:05:52.799Z,22.36
2019-06-10T19:10:56.230Z,22.27
2019-06-10T19:16:02.211Z,22.24
2019-06-10T19:21:08.630Z,22.15
2019-06-10T19:26:13.395Z,22.00
2019-06-10T19:31:17.222Z,21.81
2019-06-10T19:36:23.015Z,21.74
2019-06-10T19:41:26.585Z,21.79
2019-06-10T19:46:32.423Z,21.62
2019-06-10T19:51:37.306Z,21.75
2019-06-10T19:56:41.685Z,21.60
2019-06-10T20:01:48.234Z,21.55
2019-06-10T20:06:53.788Z,21.40
2019-06-10T20:11:57.530Z,21.39
2019-06-10T20:17:03.171Z,21.26
2019-06-10T20:22:07.009Z,21.15
2019-06-10T20:27:10.776Z,21.11
2019-06-10T20:32:15.081Z,21.06
2019-06-10T20:37:18.871Z,20.87
2019-06-10T20:42:23.175Z,20.75
2019-06-10T20:47:27.022Z,20.89
2019-06-10T20:52:32.610Z,21.04
2019-06-10T20:57:49.938Z,21.38
2019-06-10T21:02:45.493Z,21.05
2019-06-10T21:07:51.745Z,20.65
2019-06-10T21:12:54.483Z,20.49
2019-06-10T21:17:58.346Z,20.33
2019-06-10T21:23:03.150Z,20.30
2019-06-10T21:28:07.665Z,20.30
2019-06-10T21:33:13.016Z,20.20
2019-06-10T21:38:16.779Z,20.20
2019-06-10T21:43:22.337Z,20.28
2019-06-10T21:48:26.307Z,20.18
2019-06-10T21:53:30.160Z,20.06
2019-06-10T21:58:33.933Z,20.09
2019-06-10T22:03:37.716Z,20.09
2019-06-10T22:08:42.521Z,20.10
2019-06-10T22:13:48.110Z,20.07
2019-06-10T22:18:52.921Z,20.12
2019-06-10T22:23:57.107Z,20.10
2019-06-10T22:29:01.348Z,19.90
2019-06-10T22:34:05.366Z,19.88
2019-06-10T22:39:12.357Z,19.81
2019-06-10T22:44:15.182Z,19.83
2019-06-10T22:49:18.978Z,19.86
2019-06-10T22:54:22.764Z,19.80
2019-06-10T22:59:26.559Z,19.72
2019-06-10T23:04:32.998Z,19.74
2019-06-10T23:09:35.917Z,19.68
2019-06-10T23:14:39.706Z,19.68
2019-06-10T23:19:43.536Z,19.62
2019-06-10T23:24:47.448Z,19.53
2019-06-10T23:29:54.003Z,19.41
2019-06-10T23:34:58.179Z,19.42
2019-06-10T23:40:04.462Z,19.35
2019-06-10T23:45:09.443Z,19.26
2019-06-10T23:50:13.468Z,18.99
2019-06-10T23:55:17.562Z,18.99
